createdAt,value
2022-10-04T00:00:27.997Z,9.10
2022-10-04T00:15:23.275Z,8.87
2022-10-04T00:30:23.393Z,8.65
2022-10-04T00:45:23.382Z,8.32
2022-10-04T01:00:31.749Z,8.43
2022-10-04T01:15:23.343Z,8.53
2022-10-04T01:30:24.222Z,8.20
2022-10-04T01:45:23.483Z,7.92
2022-10-04T02:00:25.029Z,7.98
2022-10-04T02:15:23.419Z,8.00
2022-10-04T02:30:24.039Z,7.62
2022-10-04T02:45:23.520Z,7.55
2022-10-04T03:00:35.138Z,7.38
2022-10-04T03:15:23.891Z,7.35
2022-10-04T03:30:23.855Z,7.52
2022-10-04T03:45:24.348Z,7.85
2022-10-04T04:00:33.096Z,7.32
2022-10-04T04:15:22.936Z,7.43
2022-10-04T04:30:23.671Z,7.35
2022-10-04T04:45:22.968Z,7.12
2022-10-04T05:00:31.760Z,7.12
2022-10-04T05:15:23.313Z,7.05
2022-10-04T05:30:23.251Z,7.17
2022-10-04T05:45:23.189Z,7.00
2022-10-04T06:00:25.141Z,7.33
2022-10-04T06:15:23.753Z,7.30
2022-10-04T06:30:28.038Z,7.47
2022-10-04T06:45:23.644Z,7.73
2022-10-04T07:00:24.620Z,7.67
2022-10-04T07:15:23.631Z,7.87
2022-10-04T07:30:24.000Z,8.02
2022-10-04T07:45:26.831Z,8.15
2022-10-04T08:00:37.780Z,8.35
2022-10-04T08:15:23.748Z,8.38
2022-10-04T08:30:23.878Z,8.63
2022-10-04T08:45:23.653Z,9.00
2022-10-04T09:00:48.005Z,9.27
2022-10-04T09:15:23.729Z,9.70
2022-10-04T09:30:26.764Z,10.15
2022-10-04T09:45:23.962Z,10.50
2022-10-04T10:00:34.116Z,10.98
2022-10-04T10:15:22.917Z,11.40
2022-10-04T10:30:23.083Z,11.50
2022-10-04T10:45:23.053Z,11.98
2022-10-04T11:00:28.485Z,12.73
2022-10-04T11:15:23.055Z,13.23
2022-10-04T11:30:27.877Z,13.85
2022-10-04T11:45:23.535Z,14.32
2022-10-04T12:00:31.318Z,14.73
2022-10-04T12:15:23.926Z,15.23
2022-10-04T12:30:23.836Z,15.80
2022-10-04T12:45:24.052Z,16.15
2022-10-04T13:00:33.191Z,16.35
2022-10-04T13:15:23.811Z,16.47
2022-10-04T13:30:24.193Z,16.90
2022-10-04T13:45:24.037Z,17.40
2022-10-04T14:00:32.119Z,17.52
2022-10-04T14:15:23.950Z,17.95
2022-10-04T14:30:24.219Z,18.27
2022-10-04T14:45:24.073Z,18.42
2022-10-04T15:00:31.642Z,18.42
2022-10-04T15:15:33.256Z,18.55
2022-10-04T15:30:33.575Z,18.40
2022-10-04T15:45:33.358Z,18.13
2022-10-04T16:00:40.115Z,17.58
2022-10-04T16:15:23.691Z,17.00
2022-10-04T16:30:27.147Z,16.27
2022-10-04T16:45:23.149Z,16.07
2022-10-04T17:00:34.018Z,15.33
2022-10-04T17:15:23.190Z,14.93
2022-10-04T17:30:23.778Z,14.95
2022-10-04T17:45:23.480Z,14.30
2022-10-04T18:00:36.122Z,13.98
2022-10-04T18:15:23.439Z,13.65
2022-10-04T18:30:23.728Z,13.48
2022-10-04T18:45:23.413Z,13.30
2022-10-04T19:00:29.957Z,13.00
2022-10-04T19:15:23.654Z,12.77
2022-10-04T19:30:26.536Z,12.57
2022-10-04T19:45:23.818Z,12.53
2022-10-04T20:00:26.009Z,12.20
2022-10-04T20:15:27.626Z,12.15
2022-10-04T20:30:23.947Z,12.07
2022-10-04T20:45:23.876Z,11.73
2022-10-04T21:00:41.349Z,11.38
2022-10-04T21:15:24.046Z,11.23
2022-10-04T21:30:33.234Z,11.05
2022-10-04T21:45:33.094Z,10.87
2022-10-04T22:00:44.011Z,12.00
2022-10-04T22:15:23.056Z,10.45
2022-10-04T22:30:23.146Z,10.35
2022-10-04T22:45:23.432Z,10.17
2022-10-04T23:00:23.676Z,9.75
2022-10-04T23:15:23.232Z,9.83
2022-10-04T23:30:23.513Z,9.67
2022-10-04T23:45:23.537Z,9.23
